createdAt,value
2022-12-25T00:00:10.475Z,17.40
2022-12-25T00:03:35.640Z,17.63
2022-12-25T00:06:57.451Z,19.93
2022-12-25T00:10:20.461Z,16.90
2022-12-25T00:13:42.871Z,13.40
2022-12-25T00:17:04.869Z,13.43
2022-12-25T00:20:26.124Z,18.07
2022-12-25T00:23:48.313Z,17.77
2022-12-25T00:27:11.464Z,15.07
2022-12-25T00:30:33.292Z,14.63
2022-12-25T00:33:54.879Z,12.27
2022-12-25T00:37:16.567Z,9.23
2022-12-25T00:40:43.923Z,14.10
2022-12-25T00:44:07.194Z,12.03
2022-12-25T00:47:29.419Z,12.67
2022-12-25T00:50:54.784Z,20.53
2022-12-25T00:54:16.684Z,14.13
2022-12-25T00:57:38.027Z,18.10
2022-12-25T01:01:01.500Z,17.70
2022-12-25T01:04:22.896Z,19.37
2022-12-25T01:07:44.609Z,18.60
2022-12-25T01:11:07.729Z,18.97
2022-12-25T01:14:29.227Z,11.17
2022-12-25T01:17:52.224Z,8.37
2022-12-25T01:21:16.703Z,7.27
2022-12-25T01:24:38.194Z,8.73
2022-12-25T01:27:59.976Z,9.27
2022-12-25T01:31:23.589Z,5.20
2022-12-25T01:34:51.984Z,7.67
2022-12-25T01:38:17.248Z,8.57
2022-12-25T01:41:39.124Z,8.63
2022-12-25T01:45:35.821Z,6.67
2022-12-25T01:49:00.375Z,6.27
2022-12-25T01:52:26.101Z,8.70
2022-12-25T01:55:50.753Z,5.90
2022-12-25T01:59:14.808Z,6.33
2022-12-25T02:02:37.335Z,7.10
2022-12-25T02:06:00.430Z,8.83
2022-12-25T02:09:23.448Z,10.93
2022-12-25T02:12:46.431Z,6.50
2022-12-25T02:16:14.401Z,4.57
2022-12-25T02:19:57.173Z,6.83
2022-12-25T02:23:42.155Z,4.70
2022-12-25T02:27:20.615Z,6.53
2022-12-25T02:30:47.393Z,6.80
2022-12-25T02:34:14.658Z,6.23
2022-12-25T02:37:41.844Z,7.37
2022-12-25T02:41:09.250Z,6.67
2022-12-25T02:44:49.851Z,10.50
2022-12-25T02:48:32.148Z,6.10
2022-12-25T02:52:15.787Z,5.23
2022-12-25T02:55:57.501Z,5.93
2022-12-25T02:59:38.626Z,8.17
2022-12-25T03:03:18.918Z,10.90
2022-12-25T03:06:46.983Z,19.47
2022-12-25T03:10:30.613Z,20.57
2022-12-25T03:13:54.960Z,19.93
2022-12-25T03:17:16.030Z,16.13
2022-12-25T03:20:58.519Z,15.80
2022-12-25T03:24:38.912Z,16.43
2022-12-25T03:28:01.416Z,36.83
2022-12-25T03:31:29.714Z,20.07
2022-12-25T03:35:17.004Z,24.43
2022-12-25T03:39:05.367Z,24.53
2022-12-25T03:42:53.760Z,26.30
2022-12-25T03:46:50.590Z,14.70
2022-12-25T03:50:35.288Z,20.07
2022-12-25T03:54:18.464Z,19.37
2022-12-25T03:58:07.915Z,26.37
2022-12-25T04:01:46.161Z,14.40
2022-12-25T04:05:26.052Z,43.03
2022-12-25T04:09:04.751Z,39.40
2022-12-25T04:12:43.601Z,16.07
2022-12-25T04:16:24.958Z,16.33
2022-12-25T04:20:04.037Z,25.40
2022-12-25T04:23:43.192Z,27.20
2022-12-25T04:27:22.465Z,28.53
2022-12-25T04:31:01.507Z,40.03
2022-12-25T04:34:50.019Z,29.27
2022-12-25T04:38:11.585Z,18.13
2022-12-25T04:41:33.098Z,53.20
2022-12-25T04:44:54.727Z,29.87
2022-12-25T04:48:16.492Z,40.50
2022-12-25T04:51:39.548Z,60.90
2022-12-25T04:55:01.280Z,32.33
2022-12-25T04:58:22.935Z,25.47
2022-12-25T05:01:44.803Z,25.47
2022-12-25T05:05:08.550Z,33.17
2022-12-25T05:08:32.674Z,64.40
2022-12-25T05:11:54.268Z,34.70
2022-12-25T05:15:16.161Z,23.70
2022-12-25T05:18:37.671Z,33.90
2022-12-25T05:21:59.443Z,38.87
2022-12-25T05:25:22.601Z,33.73
2022-12-25T05:28:44.260Z,37.53
2022-12-25T05:32:06.777Z,46.73
2022-12-25T05:35:28.514Z,42.47
2022-12-25T05:38:51.145Z,30.77
2022-12-25T05:42:14.703Z,36.57
2022-12-25T05:45:36.750Z,27.13
2022-12-25T05:48:58.376Z,26.67
2022-12-25T05:52:19.967Z,32.93
2022-12-25T05:55:44.077Z,42.13
2022-12-25T05:59:06.871Z,38.27
2022-12-25T06:02:28.375Z,24.67
2022-12-25T06:05:52.032Z,24.00
2022-12-25T06:09:14.255Z,23.33
2022-12-25T06:12:35.711Z,19.73
2022-12-25T06:15:59.135Z,14.87
2022-12-25T06:19:21.134Z,18.07
2022-12-25T06:22:42.676Z,20.47
2022-12-25T06:26:05.959Z,20.23
2022-12-25T06:29:27.915Z,19.40
2022-12-25T06:32:51.091Z,15.97
2022-12-25T06:36:14.824Z,12.70
2022-12-25T06:39:36.744Z,14.93
2022-12-25T06:42:58.485Z,15.70
2022-12-25T06:46:20.997Z,13.57
2022-12-25T06:49:44.260Z,9.40
2022-12-25T06:53:05.860Z,14.30
2022-12-25T06:56:29.101Z,13.00
2022-12-25T06:59:55.097Z,12.13
2022-12-25T07:03:22.068Z,18.83
2022-12-25T07:06:45.004Z,14.63
2022-12-25T07:10:08.328Z,22.23
2022-12-25T07:13:30.131Z,28.53
2022-12-25T07:16:51.841Z,17.13
2022-12-25T07:20:13.599Z,15.07
2022-12-25T07:23:36.405Z,23.97
2022-12-25T07:26:58.117Z,25.80
2022-12-25T07:30:20.017Z,15.30
2022-12-25T07:33:42.153Z,31.10
2022-12-25T07:37:03.964Z,12.10
2022-12-25T07:40:27.383Z,19.03
2022-12-25T07:43:51.519Z,30.63
2022-12-25T07:47:15.650Z,17.90
2022-12-25T07:50:37.387Z,12.67
2022-12-25T07:53:59.037Z,25.37
2022-12-25T07:57:21.699Z,23.93
2022-12-25T08:00:43.435Z,13.50
2022-12-25T08:04:05.281Z,18.20
2022-12-25T08:07:27.329Z,18.47
2022-12-25T08:10:49.347Z,18.17
2022-12-25T08:14:12.219Z,14.03
2022-12-25T08:17:35.762Z,22.80
2022-12-25T08:20:57.559Z,25.97
2022-12-25T08:24:19.569Z,23.90
2022-12-25T08:27:41.111Z,25.60
2022-12-25T08:31:09.885Z,20.63
2022-12-25T08:34:31.248Z,16.33
2022-12-25T08:37:53.107Z,14.63
2022-12-25T08:41:16.205Z,17.87
2022-12-25T08:44:37.822Z,12.77
2022-12-25T08:48:00.975Z,13.10
2022-12-25T08:51:22.953Z,12.30
2022-12-25T08:54:44.717Z,13.47
2022-12-25T08:58:06.004Z,11.63
2022-12-25T09:01:27.908Z,15.23
2022-12-25T09:04:50.839Z,18.50
2022-12-25T09:08:12.690Z,17.90
2022-12-25T09:11:34.332Z,11.77
2022-12-25T09:14:56.156Z,13.60
2022-12-25T09:18:17.872Z,19.80
2022-12-25T09:21:41.031Z,16.30
2022-12-25T09:25:02.473Z,21.37
2022-12-25T09:28:24.258Z,35.90
2022-12-25T09:31:46.147Z,20.77
2022-12-25T09:35:08.343Z,13.57
2022-12-25T09:38:31.836Z,17.73
2022-12-25T09:41:57.351Z,19.63
2022-12-25T09:45:25.738Z,15.13
2022-12-25T09:48:51.763Z,15.00
2022-12-25T09:52:15.800Z,21.93
2022-12-25T09:55:44.927Z,30.47
2022-12-25T09:59:18.501Z,22.17
2022-12-25T10:03:03.849Z,15.37
2022-12-25T10:06:32.009Z,16.40
2022-12-25T10:10:03.786Z,19.10
2022-12-25T10:13:47.953Z,20.80
2022-12-25T10:17:27.278Z,19.70
2022-12-25T10:20:53.025Z,17.37
2022-12-25T10:24:23.312Z,17.30
2022-12-25T10:27:45.256Z,18.13
2022-12-25T10:31:19.924Z,10.53
2022-12-25T10:34:43.572Z,19.03
2022-12-25T10:38:12.195Z,11.97
2022-12-25T10:41:50.227Z,24.53
2022-12-25T10:45:12.271Z,13.70
2022-12-25T10:48:35.449Z,12.17
2022-12-25T10:51:56.938Z,9.93
2022-12-25T10:55:28.136Z,13.80
2022-12-25T10:58:50.322Z,8.77
2022-12-25T11:02:17.562Z,8.80
2022-12-25T11:05:40.945Z,9.60
2022-12-25T11:09:04.015Z,9.07
2022-12-25T11:12:30.846Z,10.50
2022-12-25T11:16:04.480Z,8.13
2022-12-25T11:19:28.981Z,10.83
2022-12-25T11:22:52.400Z,6.90
2022-12-25T11:26:13.910Z,11.70
2022-12-25T11:29:43.581Z,12.70
2022-12-25T11:33:11.888Z,17.60
2022-12-25T11:36:44.595Z,10.03
2022-12-25T11:40:14.734Z,9.03
2022-12-25T11:43:42.012Z,10.53
2022-12-25T11:47:12.949Z,8.73
2022-12-25T11:50:38.899Z,13.47
2022-12-25T11:54:05.265Z,9.43
2022-12-25T11:57:32.254Z,9.73
2022-12-25T12:00:56.439Z,11.20
2022-12-25T12:04:29.453Z,10.90
2022-12-25T12:07:58.274Z,12.33
2022-12-25T12:11:22.651Z,11.47
2022-12-25T12:14:50.847Z,17.40
2022-12-25T12:18:22.769Z,14.50
2022-12-25T12:21:50.543Z,14.07
2022-12-25T12:25:18.324Z,9.97
2022-12-25T12:28:46.752Z,10.63
2022-12-25T12:32:28.880Z,9.93
2022-12-25T12:35:50.744Z,11.17
2022-12-25T12:39:24.326Z,8.93
2022-12-25T12:42:50.537Z,10.90
2022-12-25T12:46:18.229Z,10.07
2022-12-25T12:49:42.187Z,10.50
2022-12-25T12:53:19.643Z,9.57
2022-12-25T12:56:41.292Z,12.80
2022-12-25T13:00:09.903Z,12.00
2022-12-25T13:03:49.226Z,8.00
2022-12-25T13:07:23.377Z,13.60
2022-12-25T13:10:47.948Z,13.33
2022-12-25T13:14:16.062Z,11.27
2022-12-25T13:17:38.230Z,13.37
2022-12-25T13:21:02.447Z,8.27
2022-12-25T13:24:27.956Z,10.47
2022-12-25T13:27:56.913Z,8.80
2022-12-25T13:31:20.562Z,9.33
2022-12-25T13:34:43.524Z,9.03
2022-12-25T13:38:11.105Z,9.77
2022-12-25T13:41:59.954Z,8.37
2022-12-25T13:45:24.779Z,9.23
2022-12-25T13:48:56.145Z,7.77
2022-12-25T13:52:21.108Z,8.97
2022-12-25T13:55:45.285Z,9.67
2022-12-25T13:59:14.685Z,12.17
2022-12-25T14:02:39.039Z,16.27
2022-12-25T14:06:02.273Z,13.53
2022-12-25T14:09:24.477Z,11.77
2022-12-25T14:12:49.452Z,11.03
2022-12-25T14:16:12.586Z,14.00
2022-12-25T14:19:35.339Z,12.97
2022-12-25T14:22:59.086Z,12.47
2022-12-25T14:26:23.558Z,13.97
2022-12-25T14:29:47.629Z,13.47
2022-12-25T14:33:16.977Z,17.17
2022-12-25T14:36:39.005Z,11.23
2022-12-25T14:40:02.253Z,9.40
2022-12-25T14:43:26.932Z,9.33
2022-12-25T14:46:48.713Z,13.03
2022-12-25T14:50:25.622Z,14.47
2022-12-25T14:53:50.336Z,18.83
2022-12-25T14:57:19.115Z,17.27
2022-12-25T15:00:40.850Z,14.30
2022-12-25T15:04:08.525Z,12.40
2022-12-25T15:07:32.951Z,11.00
2022-12-25T15:11:01.834Z,11.43
2022-12-25T15:14:25.377Z,11.80
2022-12-25T15:17:47.112Z,13.63
2022-12-25T15:21:15.697Z,15.77
2022-12-25T15:24:38.808Z,14.37
2022-12-25T15:28:00.242Z,11.77
2022-12-25T15:31:25.231Z,14.53
2022-12-25T15:34:49.648Z,13.07
2022-12-25T15:38:11.572Z,15.93
2022-12-25T15:41:54.473Z,17.43
2022-12-25T15:45:21.397Z,14.27
2022-12-25T15:48:43.274Z,14.00
2022-12-25T15:52:05.205Z,16.03
2022-12-25T15:55:26.757Z,15.27
2022-12-25T15:58:49.848Z,14.73
2022-12-25T16:02:16.605Z,13.73
2022-12-25T16:05:38.259Z,14.63
2022-12-25T16:08:59.892Z,14.53
2022-12-25T16:12:21.739Z,15.80
2022-12-25T16:15:45.046Z,13.40
2022-12-25T16:19:07.039Z,15.53
2022-12-25T16:22:28.469Z,15.67
2022-12-25T16:25:50.534Z,14.93
2022-12-25T16:29:12.682Z,17.00
2022-12-25T16:32:35.569Z,17.03
2022-12-25T16:35:57.499Z,19.00
2022-12-25T16:39:19.204Z,20.60
2022-12-25T16:42:40.467Z,19.40
2022-12-25T16:46:02.356Z,20.50
2022-12-25T16:49:25.313Z,22.53
2022-12-25T16:52:47.227Z,22.40
2022-12-25T16:56:10.740Z,21.77
2022-12-25T16:59:33.022Z,22.90
2022-12-25T17:02:57.658Z,20.70
2022-12-25T17:06:23.107Z,20.03
2022-12-25T17:09:47.669Z,17.80
2022-12-25T17:13:09.443Z,20.27
2022-12-25T17:16:33.558Z,20.70
2022-12-25T17:19:55.730Z,20.63
2022-12-25T17:23:18.928Z,21.53
2022-12-25T17:26:40.730Z,22.57
2022-12-25T17:30:02.632Z,21.37
2022-12-25T17:33:24.388Z,19.93
2022-12-25T17:36:46.369Z,30.40
2022-12-25T17:40:11.019Z,24.67
2022-12-25T17:43:33.486Z,22.47
2022-12-25T17:46:54.997Z,22.57
2022-12-25T17:50:16.847Z,25.40
2022-12-25T17:53:40.034Z,24.60
2022-12-25T17:57:02.669Z,23.50
2022-12-25T18:00:24.341Z,27.10
2022-12-25T18:03:46.996Z,23.30
2022-12-25T18:07:08.379Z,25.17
2022-12-25T18:10:29.916Z,24.60
2022-12-25T18:13:53.526Z,22.63
2022-12-25T18:17:14.782Z,23.57
2022-12-25T18:20:40.307Z,26.40
2022-12-25T18:24:03.921Z,24.80
2022-12-25T18:27:25.387Z,23.83
2022-12-25T18:30:48.600Z,25.20
2022-12-25T18:34:09.969Z,23.40
2022-12-25T18:37:34.472Z,22.17
2022-12-25T18:41:01.135Z,22.50
2022-12-25T18:44:22.957Z,25.57
2022-12-25T18:47:46.365Z,22.90
2022-12-25T18:51:12.145Z,23.57
2022-12-25T18:54:35.415Z,23.07
2022-12-25T18:57:57.021Z,23.73
2022-12-25T19:01:20.690Z,25.17
2022-12-25T19:04:44.100Z,21.17
2022-12-25T19:08:05.747Z,21.77
2022-12-25T19:11:27.181Z,24.00
2022-12-25T19:14:48.969Z,22.07
2022-12-25T19:18:11.038Z,18.40
2022-12-25T19:21:33.928Z,16.20
2022-12-25T19:24:55.764Z,17.30
2022-12-25T19:28:17.940Z,13.33
2022-12-25T19:31:40.630Z,16.23
2022-12-25T19:35:04.495Z,13.30
2022-12-25T19:38:27.621Z,13.83
2022-12-25T19:41:49.611Z,11.13
2022-12-25T19:45:11.806Z,11.97
2022-12-25T19:48:34.756Z,13.47
2022-12-25T19:51:56.590Z,13.90
2022-12-25T19:55:21.969Z,13.80
2022-12-25T19:58:43.702Z,11.40
2022-12-25T20:02:05.602Z,12.50
2022-12-25T20:05:27.139Z,15.37
2022-12-25T20:08:50.028Z,13.00
2022-12-25T20:12:15.049Z,14.37
2022-12-25T20:15:36.811Z,12.40
2022-12-25T20:18:59.073Z,12.47
2022-12-25T20:22:20.257Z,15.20
2022-12-25T20:25:42.718Z,12.20
2022-12-25T20:29:05.840Z,9.73
2022-12-25T20:32:27.688Z,12.03
2022-12-25T20:35:50.197Z,11.27
2022-12-25T20:39:12.870Z,11.60
2022-12-25T20:42:34.388Z,8.53
2022-12-25T20:45:58.272Z,9.93
2022-12-25T20:49:19.705Z,10.67
2022-12-25T20:52:41.464Z,10.80
2022-12-25T20:56:03.603Z,11.20
2022-12-25T20:59:24.948Z,11.27
2022-12-25T21:02:48.216Z,9.17
2022-12-25T21:06:10.678Z,10.50
2022-12-25T21:09:32.581Z,12.77
2022-12-25T21:12:54.285Z,9.60
2022-12-25T21:16:18.543Z,10.77
2022-12-25T21:19:41.653Z,12.93
2022-12-25T21:23:03.431Z,12.07
2022-12-25T21:26:27.080Z,10.97
2022-12-25T21:29:48.729Z,11.37
2022-12-25T21:33:30.277Z,11.13
2022-12-25T21:36:53.141Z,12.23
2022-12-25T21:40:16.654Z,12.47
2022-12-25T21:43:39.602Z,12.63
2022-12-25T21:47:01.240Z,12.00
2022-12-25T21:50:40.666Z,14.70
2022-12-25T21:54:04.288Z,12.17
2022-12-25T21:57:25.731Z,14.00
2022-12-25T22:00:47.541Z,13.63
2022-12-25T22:04:10.159Z,13.10
2022-12-25T22:07:32.596Z,13.40
2022-12-25T22:10:55.636Z,15.23
2022-12-25T22:14:51.297Z,13.37
2022-12-25T22:18:32.478Z,11.20
2022-12-25T22:21:54.032Z,11.93
2022-12-25T22:25:17.191Z,12.07
2022-12-25T22:28:40.551Z,12.33
2022-12-25T22:32:02.133Z,12.33
2022-12-25T22:35:23.806Z,13.30
2022-12-25T22:38:45.476Z,12.03
2022-12-25T22:42:06.931Z,9.60
2022-12-25T22:45:30.087Z,9.40
2022-12-25T22:48:51.734Z,10.80
2022-12-25T22:52:13.355Z,12.83
2022-12-25T22:55:34.617Z,13.47
2022-12-25T22:58:57.278Z,12.67
2022-12-25T23:02:20.404Z,10.90
2022-12-25T23:05:42.462Z,11.73
2022-12-25T23:09:06.381Z,10.93
2022-12-25T23:12:45.547Z,13.40
2022-12-25T23:16:07.897Z,10.80
2022-12-25T23:19:48.607Z,16.63
2022-12-25T23:23:32.686Z,11.90
2022-12-25T23:26:54.186Z,12.40
2022-12-25T23:30:17.482Z,11.10
2022-12-25T23:33:39.147Z,14.23
2022-12-25T23:37:02.501Z,13.30
2022-12-25T23:40:24.216Z,12.10
2022-12-25T23:43:46.033Z,11.97
2022-12-25T23:47:07.592Z,10.83
2022-12-25T23:50:29.266Z,14.37
2022-12-25T23:53:52.150Z,12.33
2022-12-25T23:57:13.688Z,10.47
